Terminal Aerodrome Forecast
Issued by NWS

Home | Current Version | Previous Version | Text Only | Print | Product List | Glossary On
Versions: 1 2 3 4 5 6 7 8 9 10 11 12 13 14 15 16
000
FTUS46 KSGX 260230 AAA
TAFSNA
TAF AMD
KSNA 260230Z 2603/2624 27015G25KT P6SM SCT015 BKN030 BKN250
     FM260600 25008KT P6SM SCT025 SCT035 BKN050
     FM260900 VRB05KT P6SM SCT025 BKN050
     FM261800 24008KT P6SM SCT025 BKN050
     FM262200 30008KT P6SM SCT025 SCT050=

USA.gov is the U.S. government's official web portal to all federal, state and local government web resources and services.